createdAt,value
2022-08-26T00:01:56.613Z,60.99
2022-08-26T00:04:25.356Z,61.04
2022-08-26T00:06:55.707Z,60.63
2022-08-26T00:09:24.636Z,60.53
2022-08-26T00:11:53.876Z,60.37
2022-08-26T00:14:27.026Z,60.69
2022-08-26T00:16:57.714Z,59.78
2022-08-26T00:19:25.062Z,60.26
2022-08-26T00:21:52.641Z,60.63
2022-08-26T00:24:21.792Z,61.26
2022-08-26T00:26:49.660Z,61.06
2022-08-26T00:29:18.197Z,61.76
2022-08-26T00:31:45.778Z,60.72
2022-08-26T00:34:15.330Z,60.75
2022-08-26T00:36:43.705Z,59.27
2022-08-26T00:39:11.338Z,59.63
2022-08-26T00:41:41.118Z,60.71
2022-08-26T00:44:11.038Z,61.87
2022-08-26T00:47:00.097Z,62.68
2022-08-26T00:49:39.119Z,62.86
2022-08-26T00:52:15.692Z,63.75
2022-08-26T00:55:02.861Z,63.91
2022-08-26T00:57:31.823Z,62.95
2022-08-26T01:00:01.492Z,64.04
2022-08-26T01:02:29.168Z,64.08
2022-08-26T01:05:01.325Z,64.01
2022-08-26T01:07:32.931Z,64.59
2022-08-26T01:10:07.902Z,64.49
2022-08-26T01:12:41.053Z,63.44
2022-08-26T01:15:11.599Z,63.20
2022-08-26T01:17:39.523Z,63.02
2022-08-26T01:20:18.721Z,62.51
2022-08-26T01:22:57.638Z,62.80
2022-08-26T01:25:28.407Z,61.69
2022-08-26T01:27:58.846Z,62.26
2022-08-26T01:30:31.162Z,63.87
2022-08-26T01:33:03.024Z,64.88
2022-08-26T01:35:30.849Z,66.09
2022-08-26T01:38:00.630Z,64.79
2022-08-26T01:40:33.762Z,65.01
2022-08-26T01:43:02.309Z,65.11
2022-08-26T01:45:33.284Z,65.16
2022-08-26T01:48:04.480Z,66.29
2022-08-26T01:50:34.469Z,65.33
2022-08-26T01:53:09.450Z,64.35
2022-08-26T01:55:41.629Z,64.62
2022-08-26T01:58:23.504Z,65.56
2022-08-26T02:00:51.835Z,65.52
2022-08-26T02:03:22.279Z,65.90
2022-08-26T02:05:58.118Z,65.53
2022-08-26T02:08:31.085Z,64.41
2022-08-26T02:10:58.583Z,65.58
2022-08-26T02:13:30.075Z,64.91
2022-08-26T02:16:00.857Z,65.66
2022-08-26T02:18:30.336Z,65.20
2022-08-26T02:20:57.663Z,64.54
2022-08-26T02:23:27.036Z,63.71
2022-08-26T02:26:09.283Z,64.35
2022-08-26T02:28:44.568Z,64.03
2022-08-26T02:31:12.653Z,64.79
2022-08-26T02:33:43.063Z,64.83
2022-08-26T02:36:10.876Z,65.07
2022-08-26T02:38:40.703Z,65.08
2022-08-26T02:41:11.237Z,64.85
2022-08-26T02:43:38.557Z,65.50
2022-08-26T02:46:06.015Z,66.88
2022-08-26T02:48:33.694Z,66.26
2022-08-26T02:51:01.888Z,66.46
2022-08-26T02:53:32.068Z,66.14
2022-08-26T02:56:04.672Z,65.37
2022-08-26T02:58:32.468Z,65.73
2022-08-26T03:00:59.802Z,65.49
2022-08-26T03:03:29.198Z,65.57
2022-08-26T03:05:57.869Z,65.99
2022-08-26T03:08:25.355Z,64.75
2022-08-26T03:10:52.966Z,65.02
2022-08-26T03:13:20.414Z,64.87
2022-08-26T03:15:47.859Z,64.82
2022-08-26T03:18:16.034Z,65.04
2022-08-26T03:20:43.989Z,65.04
2022-08-26T03:23:12.544Z,64.92
2022-08-26T03:25:40.143Z,65.10
2022-08-26T03:28:07.711Z,65.30
2022-08-26T03:30:44.639Z,66.22
2022-08-26T03:33:14.542Z,66.98
2022-08-26T03:35:43.678Z,67.58
2022-08-26T03:38:11.787Z,67.18
2022-08-26T03:40:39.832Z,67.02
2022-08-26T03:43:10.191Z,67.33
2022-08-26T03:45:38.253Z,67.89
2022-08-26T03:48:06.020Z,68.78
2022-08-26T03:50:36.011Z,68.66
2022-08-26T03:53:04.130Z,68.76
2022-08-26T03:55:33.237Z,68.81
2022-08-26T03:58:02.087Z,68.84
2022-08-26T04:00:30.330Z,69.17
2022-08-26T04:02:57.935Z,68.77
2022-08-26T04:05:25.387Z,69.19
2022-08-26T04:07:52.909Z,69.31
2022-08-26T04:10:29.121Z,68.82
2022-08-26T04:12:59.392Z,69.25
2022-08-26T04:15:27.140Z,68.96
2022-08-26T04:17:55.965Z,69.60
2022-08-26T04:20:25.459Z,68.96
2022-08-26T04:22:53.110Z,68.94
2022-08-26T04:25:21.266Z,68.53
2022-08-26T04:27:48.661Z,68.35
2022-08-26T04:30:18.039Z,68.54
2022-08-26T04:32:45.620Z,67.64
2022-08-26T04:35:12.923Z,67.72
2022-08-26T04:37:43.039Z,67.90
2022-08-26T04:40:11.146Z,68.04
2022-08-26T04:42:38.575Z,68.16
2022-08-26T04:45:10.243Z,68.12
2022-08-26T04:47:38.840Z,68.59
2022-08-26T04:50:08.351Z,68.86
2022-08-26T04:52:38.858Z,68.53
2022-08-26T04:55:08.595Z,69.00
2022-08-26T04:57:36.376Z,68.19
2022-08-26T05:00:06.690Z,69.29
2022-08-26T05:02:34.423Z,69.31
2022-08-26T05:05:02.647Z,69.42
2022-08-26T05:07:31.388Z,69.67
2022-08-26T05:09:59.349Z,70.43
2022-08-26T05:12:28.240Z,70.94
2022-08-26T05:14:55.799Z,70.09
2022-08-26T05:17:23.406Z,69.55
2022-08-26T05:19:50.781Z,69.58
2022-08-26T05:22:18.324Z,68.50
2022-08-26T05:24:46.474Z,70.77
2022-08-26T05:27:14.331Z,69.53
2022-08-26T05:29:42.410Z,69.16
2022-08-26T05:32:11.895Z,68.68
2022-08-26T05:34:39.441Z,66.49
2022-08-26T05:37:10.319Z,64.86
2022-08-26T05:39:38.199Z,64.69
2022-08-26T05:42:08.601Z,64.03
2022-08-26T05:44:53.876Z,64.64
2022-08-26T05:47:24.227Z,63.59
2022-08-26T05:49:52.430Z,63.05
2022-08-26T05:52:20.359Z,62.15
2022-08-26T05:54:47.837Z,61.98
2022-08-26T05:57:15.956Z,63.83
2022-08-26T05:59:45.912Z,65.03
2022-08-26T06:02:13.397Z,65.49
2022-08-26T06:04:41.011Z,65.47
2022-08-26T06:07:11.508Z,62.13
2022-08-26T06:09:39.694Z,62.00
2022-08-26T06:12:07.268Z,61.70
2022-08-26T06:14:36.053Z,60.71
2022-08-26T06:17:03.402Z,60.14
2022-08-26T06:19:33.057Z,59.76
2022-08-26T06:22:23.281Z,59.50
2022-08-26T06:25:09.927Z,59.26
2022-08-26T06:27:37.469Z,59.35
2022-08-26T06:30:05.208Z,59.00
2022-08-26T06:32:33.662Z,59.52
2022-08-26T06:35:01.059Z,58.66
2022-08-26T06:37:28.902Z,58.19
2022-08-26T06:39:56.624Z,57.71
2022-08-26T06:42:25.109Z,57.35
2022-08-26T06:44:52.508Z,55.13
2022-08-26T06:47:20.293Z,52.96
2022-08-26T06:49:48.303Z,50.70
2022-08-26T06:52:22.971Z,46.71
2022-08-26T06:54:52.026Z,44.29
2022-08-26T06:57:20.460Z,42.55
2022-08-26T06:59:48.603Z,40.71
2022-08-26T07:02:19.073Z,40.60
2022-08-26T07:04:48.123Z,41.13
2022-08-26T07:07:18.568Z,43.12
2022-08-26T07:09:49.352Z,44.64
2022-08-26T07:12:20.319Z,45.72
2022-08-26T07:14:48.433Z,45.43
2022-08-26T07:17:16.324Z,44.94
2022-08-26T07:19:43.899Z,45.24
2022-08-26T07:22:11.302Z,45.34
2022-08-26T07:24:42.674Z,44.45
2022-08-26T07:27:15.905Z,44.49
2022-08-26T07:29:45.017Z,44.67
2022-08-26T07:32:14.580Z,44.02
2022-08-26T07:34:43.168Z,43.45
2022-08-26T07:37:11.640Z,43.07
2022-08-26T07:39:41.618Z,42.32
2022-08-26T07:42:14.015Z,42.92
2022-08-26T07:44:42.224Z,42.46
2022-08-26T07:47:25.515Z,42.93
2022-08-26T07:49:55.795Z,42.20
2022-08-26T07:52:26.888Z,42.92
2022-08-26T07:54:59.011Z,42.60
2022-08-26T07:57:27.547Z,41.45
2022-08-26T07:59:56.064Z,42.21
2022-08-26T08:02:25.469Z,41.09
2022-08-26T08:04:53.110Z,40.02
2022-08-26T08:07:21.694Z,39.95
2022-08-26T08:10:09.875Z,40.72
2022-08-26T08:12:40.329Z,40.38
2022-08-26T08:15:10.273Z,38.68
2022-08-26T08:17:38.680Z,39.08
2022-08-26T08:20:07.943Z,39.30
2022-08-26T08:22:35.624Z,37.59
2022-08-26T08:25:06.338Z,40.21
2022-08-26T08:27:37.077Z,39.60
2022-08-26T08:30:06.224Z,38.54
2022-08-26T08:32:34.163Z,39.13
2022-08-26T08:35:02.666Z,39.92
2022-08-26T08:37:38.326Z,39.90
2022-08-26T08:40:07.901Z,39.76
2022-08-26T08:42:42.868Z,38.65
2022-08-26T08:45:26.148Z,38.89
2022-08-26T08:47:58.126Z,38.88
2022-08-26T08:50:35.481Z,38.75
2022-08-26T08:53:17.686Z,36.74
2022-08-26T08:55:48.074Z,37.92
2022-08-26T08:58:21.025Z,38.17
2022-08-26T09:01:04.107Z,38.17
2022-08-26T09:03:58.076Z,38.64
2022-08-26T09:06:28.670Z,38.96
2022-08-26T09:08:57.281Z,37.56
2022-08-26T09:11:25.144Z,36.75
2022-08-26T09:13:55.405Z,35.60
2022-08-26T09:16:23.489Z,36.21
2022-08-26T09:19:11.133Z,35.13
2022-08-26T09:21:38.667Z,34.08
2022-08-26T09:24:07.768Z,33.83
2022-08-26T09:26:38.649Z,35.12
2022-08-26T09:29:14.253Z,34.41
2022-08-26T09:31:42.552Z,34.18
2022-08-26T09:34:23.708Z,35.45
2022-08-26T09:36:53.585Z,35.56
2022-08-26T09:39:24.924Z,34.90
2022-08-26T09:42:19.337Z,35.08
2022-08-26T09:45:03.587Z,34.97
2022-08-26T09:47:47.884Z,35.84
2022-08-26T09:50:36.016Z,35.63
2022-08-26T09:53:12.945Z,34.99
2022-08-26T09:55:43.196Z,35.63
2022-08-26T09:58:16.839Z,36.86
2022-08-26T10:00:56.904Z,35.40
2022-08-26T10:03:28.687Z,34.73
2022-08-26T10:06:05.184Z,34.18
2022-08-26T10:08:34.249Z,34.00
2022-08-26T10:11:11.220Z,34.03
2022-08-26T10:13:43.714Z,34.30
2022-08-26T10:16:20.615Z,34.62
2022-08-26T10:19:11.709Z,34.91
2022-08-26T10:21:49.471Z,34.28
2022-08-26T10:24:50.826Z,35.81
2022-08-26T10:27:30.318Z,35.64
2022-08-26T10:30:06.279Z,34.87
2022-08-26T10:32:40.851Z,34.78
2022-08-26T10:35:12.868Z,33.29
2022-08-26T10:37:51.003Z,34.54
2022-08-26T10:40:29.295Z,32.86
2022-08-26T10:43:11.044Z,33.25
2022-08-26T10:45:46.934Z,34.26
2022-08-26T10:48:24.493Z,33.30
2022-08-26T10:50:51.968Z,34.53
2022-08-26T10:53:34.288Z,34.88
2022-08-26T10:56:15.825Z,35.72
2022-08-26T10:58:46.295Z,35.74
2022-08-26T11:01:42.205Z,37.32
2022-08-26T11:04:42.295Z,35.86
2022-08-26T11:07:56.125Z,36.26
2022-08-26T11:10:24.436Z,34.97
2022-08-26T11:13:03.780Z,35.00
2022-08-26T11:15:31.653Z,36.19
2022-08-26T11:18:04.903Z,36.86
2022-08-26T11:20:47.152Z,36.79
2022-08-26T11:23:20.570Z,36.04
2022-08-26T11:26:10.962Z,36.42
2022-08-26T11:28:40.123Z,36.68
2022-08-26T11:31:40.458Z,36.69
2022-08-26T11:34:13.375Z,37.02
2022-08-26T11:36:52.150Z,36.12
2022-08-26T11:39:24.148Z,36.31
2022-08-26T11:41:54.423Z,36.23
2022-08-26T11:44:24.972Z,37.09
2022-08-26T11:46:53.920Z,36.52
2022-08-26T11:49:21.598Z,36.11
2022-08-26T11:51:48.946Z,34.28
2022-08-26T11:54:30.493Z,36.74
2022-08-26T11:57:09.513Z,36.95
2022-08-26T11:59:42.342Z,36.84
2022-08-26T12:02:17.717Z,37.12
2022-08-26T12:04:48.894Z,37.15
2022-08-26T12:07:18.499Z,34.95
2022-08-26T12:09:54.868Z,35.40
2022-08-26T12:12:35.223Z,35.96
2022-08-26T12:15:12.780Z,35.94
2022-08-26T12:17:41.875Z,35.74
2022-08-26T12:20:29.053Z,36.99
2022-08-26T12:22:59.081Z,35.95
2022-08-26T12:25:28.012Z,36.73
2022-08-26T12:28:05.552Z,37.26
2022-08-26T12:30:32.991Z,37.47
2022-08-26T12:33:22.205Z,36.34
2022-08-26T12:35:54.790Z,36.14
2022-08-26T12:38:26.130Z,36.48
2022-08-26T12:40:53.910Z,36.32
2022-08-26T12:43:41.022Z,36.01
2022-08-26T12:46:16.461Z,36.14
2022-08-26T12:48:47.560Z,36.91
2022-08-26T12:51:25.518Z,33.98
2022-08-26T12:53:54.042Z,34.55
2022-08-26T12:56:24.482Z,35.63
2022-08-26T12:59:02.832Z,35.84
2022-08-26T13:01:38.160Z,36.73
2022-08-26T13:04:06.933Z,36.71
2022-08-26T13:06:35.062Z,35.96
2022-08-26T13:09:25.136Z,35.10
2022-08-26T13:11:53.184Z,35.81
2022-08-26T13:14:24.371Z,35.94
2022-08-26T13:16:52.823Z,36.80
2022-08-26T13:19:22.914Z,36.04
2022-08-26T13:21:56.657Z,36.20
2022-08-26T13:24:38.437Z,36.89
2022-08-26T13:27:07.885Z,36.00
2022-08-26T13:29:35.737Z,34.64
2022-08-26T13:32:04.721Z,35.14
2022-08-26T13:34:32.593Z,35.04
2022-08-26T13:36:59.974Z,36.80
2022-08-26T13:39:27.502Z,37.29
2022-08-26T13:41:54.946Z,36.01
2022-08-26T13:44:22.302Z,36.32
2022-08-26T13:46:49.757Z,36.54
2022-08-26T13:49:17.283Z,36.74
2022-08-26T13:51:44.618Z,37.24
2022-08-26T13:54:11.925Z,36.72
2022-08-26T13:56:39.764Z,36.78
2022-08-26T13:59:07.148Z,37.93
2022-08-26T14:01:35.722Z,37.03
2022-08-26T14:04:03.369Z,37.41
2022-08-26T14:06:30.764Z,36.84
2022-08-26T14:08:58.635Z,35.70
2022-08-26T14:11:26.980Z,36.33
2022-08-26T14:13:54.351Z,36.97
2022-08-26T14:16:33.168Z,37.53
2022-08-26T14:19:02.146Z,36.96
2022-08-26T14:21:32.183Z,36.92
2022-08-26T14:24:01.056Z,38.24
2022-08-26T14:26:29.936Z,37.71
2022-08-26T14:28:59.078Z,38.71
2022-08-26T14:31:29.326Z,38.38
2022-08-26T14:34:01.056Z,38.53
2022-08-26T14:36:28.506Z,38.45
2022-08-26T14:38:58.240Z,36.96
2022-08-26T14:41:27.115Z,37.44
2022-08-26T14:44:01.999Z,36.88
2022-08-26T14:46:31.725Z,38.12
2022-08-26T14:49:02.054Z,38.37
2022-08-26T14:51:30.380Z,38.07
2022-08-26T14:54:12.897Z,38.63
2022-08-26T14:56:52.110Z,38.54
2022-08-26T14:59:28.253Z,38.37
2022-08-26T15:01:56.624Z,38.64
2022-08-26T15:04:25.281Z,38.45
2022-08-26T15:06:56.311Z,38.76
2022-08-26T15:09:24.010Z,39.72
2022-08-26T15:11:52.811Z,39.46
2022-08-26T15:14:21.581Z,40.82
2022-08-26T15:16:51.080Z,38.68
2022-08-26T15:19:19.330Z,39.97
2022-08-26T15:21:47.688Z,40.44
2022-08-26T15:24:20.063Z,41.04
2022-08-26T15:26:47.727Z,40.44
2022-08-26T15:29:15.414Z,40.87
2022-08-26T15:31:43.088Z,40.57
2022-08-26T15:34:16.434Z,40.86
2022-08-26T15:36:46.353Z,41.89
2022-08-26T15:39:15.593Z,41.60
2022-08-26T15:41:42.903Z,41.38
2022-08-26T15:44:11.745Z,41.45
2022-08-26T15:46:39.559Z,41.59
2022-08-26T15:49:07.076Z,42.17
2022-08-26T15:51:45.837Z,41.41
2022-08-26T15:54:16.681Z,41.44
2022-08-26T15:56:45.642Z,41.48
2022-08-26T15:59:16.070Z,41.57
2022-08-26T16:01:44.334Z,41.77
2022-08-26T16:04:12.013Z,42.97
2022-08-26T16:06:40.941Z,43.13
2022-08-26T16:09:09.727Z,42.94
2022-08-26T16:11:38.050Z,43.22
2022-08-26T16:14:06.004Z,43.03
2022-08-26T16:16:33.441Z,43.37
2022-08-26T16:19:05.554Z,44.32
2022-08-26T16:21:35.169Z,44.18
2022-08-26T16:24:03.546Z,44.02
2022-08-26T16:26:34.737Z,43.83
2022-08-26T16:29:04.646Z,44.19
2022-08-26T16:31:32.255Z,44.56
2022-08-26T16:33:59.788Z,44.11
2022-08-26T16:36:27.318Z,44.12
2022-08-26T16:38:56.357Z,43.65
2022-08-26T16:41:25.408Z,44.41
2022-08-26T16:43:53.410Z,44.30
2022-08-26T16:46:23.678Z,44.09
2022-08-26T16:48:53.484Z,44.71
2022-08-26T16:51:23.069Z,44.81
2022-08-26T16:53:51.842Z,44.76
2022-08-26T16:56:22.621Z,45.02
2022-08-26T16:58:50.682Z,45.27
2022-08-26T17:01:18.261Z,45.12
2022-08-26T17:03:45.638Z,45.45
2022-08-26T17:06:13.191Z,45.26
2022-08-26T17:08:41.932Z,45.75
2022-08-26T17:11:09.382Z,45.45
2022-08-26T17:13:38.100Z,45.93
2022-08-26T17:16:08.467Z,45.96
2022-08-26T17:18:37.334Z,46.08
2022-08-26T17:21:09.338Z,46.44
2022-08-26T17:23:38.329Z,46.22
2022-08-26T17:26:05.877Z,46.26
2022-08-26T17:28:33.626Z,46.17
2022-08-26T17:31:01.791Z,45.99
2022-08-26T17:33:29.677Z,46.62
2022-08-26T17:35:57.539Z,47.36
2022-08-26T17:38:25.706Z,46.95
2022-08-26T17:40:53.507Z,45.76
2022-08-26T17:43:20.882Z,46.05
2022-08-26T17:45:48.261Z,46.37
2022-08-26T17:48:15.684Z,46.83
2022-08-26T17:50:43.261Z,46.89
2022-08-26T17:53:19.105Z,48.01
2022-08-26T17:55:49.897Z,47.74
2022-08-26T17:58:23.371Z,47.37
2022-08-26T18:00:52.812Z,47.67
2022-08-26T18:03:20.393Z,48.38
2022-08-26T18:05:49.978Z,48.90
2022-08-26T18:08:17.678Z,47.45
2022-08-26T18:10:45.103Z,47.68
2022-08-26T18:13:14.725Z,47.32
2022-08-26T18:15:45.301Z,47.83
2022-08-26T18:18:14.347Z,47.66
2022-08-26T18:20:43.601Z,47.76
2022-08-26T18:23:12.383Z,48.76
2022-08-26T18:25:43.508Z,48.56
2022-08-26T18:28:10.980Z,48.19
2022-08-26T18:30:38.586Z,48.92
2022-08-26T18:33:06.028Z,49.51
2022-08-26T18:35:39.341Z,49.19
2022-08-26T18:38:11.264Z,49.35
2022-08-26T18:40:41.631Z,49.75
2022-08-26T18:43:09.321Z,50.28
2022-08-26T18:45:37.021Z,50.12
2022-08-26T18:48:05.124Z,50.14
2022-08-26T18:50:32.598Z,50.07
2022-08-26T18:53:01.886Z,50.81
2022-08-26T18:55:29.197Z,51.11
2022-08-26T18:57:56.544Z,51.92
2022-08-26T19:00:23.983Z,51.67
2022-08-26T19:02:52.058Z,51.88
2022-08-26T19:05:22.979Z,52.40
2022-08-26T19:07:51.808Z,52.46
2022-08-26T19:10:19.154Z,53.18
2022-08-26T19:12:46.475Z,53.17
2022-08-26T19:15:19.602Z,54.05
2022-08-26T19:17:48.130Z,54.34
2022-08-26T19:20:15.635Z,54.87
2022-08-26T19:22:43.165Z,55.39
2022-08-26T19:25:10.546Z,55.82
2022-08-26T19:27:37.922Z,56.38
2022-08-26T19:30:07.067Z,56.73
2022-08-26T19:32:34.429Z,57.17
2022-08-26T19:35:01.922Z,57.04
2022-08-26T19:37:29.355Z,57.19
2022-08-26T19:39:56.822Z,57.50
2022-08-26T19:42:24.177Z,58.12
2022-08-26T19:45:07.386Z,57.43
2022-08-26T19:47:39.830Z,56.77
2022-08-26T19:50:11.708Z,56.36
2022-08-26T19:52:41.319Z,56.55
2022-08-26T19:55:11.435Z,56.66
2022-08-26T19:57:39.996Z,56.66
2022-08-26T20:00:11.750Z,57.53
2022-08-26T20:02:39.683Z,56.99
2022-08-26T20:05:08.654Z,57.67
2022-08-26T20:07:36.215Z,57.75
2022-08-26T20:10:05.707Z,58.14
2022-08-26T20:12:35.560Z,57.74
2022-08-26T20:15:05.066Z,58.35
2022-08-26T20:17:32.964Z,58.40
2022-08-26T20:20:28.428Z,57.54
2022-08-26T20:23:04.400Z,56.98
2022-08-26T20:25:33.259Z,56.94
2022-08-26T20:28:00.871Z,58.89
2022-08-26T20:30:28.368Z,59.18
2022-08-26T20:32:56.239Z,59.96
2022-08-26T20:35:24.006Z,59.80
2022-08-26T20:37:51.427Z,59.99
2022-08-26T20:40:19.026Z,60.03
2022-08-26T20:42:46.509Z,60.25
2022-08-26T20:45:13.993Z,59.27
2022-08-26T20:47:41.748Z,58.96
2022-08-26T20:50:09.825Z,57.79
2022-08-26T20:52:37.230Z,57.92
2022-08-26T20:55:05.091Z,57.45
2022-08-26T20:57:32.433Z,58.37
2022-08-26T21:00:01.004Z,58.69
2022-08-26T21:02:28.446Z,58.95
2022-08-26T21:04:55.815Z,59.53
2022-08-26T21:07:23.257Z,59.36
2022-08-26T21:09:51.611Z,59.26
2022-08-26T21:12:19.064Z,60.27
2022-08-26T21:14:49.555Z,59.41
2022-08-26T21:17:17.291Z,59.42
2022-08-26T21:19:44.711Z,59.11
2022-08-26T21:22:12.370Z,58.63
2022-08-26T21:24:40.146Z,59.14
2022-08-26T21:27:07.449Z,59.25
2022-08-26T21:29:36.183Z,59.46
2022-08-26T21:32:04.632Z,59.29
2022-08-26T21:34:32.684Z,59.35
2022-08-26T21:37:00.633Z,59.24
2022-08-26T21:39:28.237Z,58.81
2022-08-26T21:41:55.706Z,60.00
2022-08-26T21:44:23.046Z,59.35
2022-08-26T21:46:50.797Z,60.24
2022-08-26T21:49:18.122Z,60.59
2022-08-26T21:51:48.280Z,60.49
2022-08-26T21:54:16.131Z,61.38
2022-08-26T21:56:46.821Z,61.15
2022-08-26T21:59:18.974Z,61.39
2022-08-26T22:01:46.594Z,61.23
2022-08-26T22:04:13.982Z,62.08
2022-08-26T22:06:47.688Z,62.55
2022-08-26T22:09:17.887Z,62.52
2022-08-26T22:11:46.344Z,63.34
2022-08-26T22:14:15.287Z,62.57
2022-08-26T22:16:50.249Z,62.47
2022-08-26T22:19:20.142Z,62.67
2022-08-26T22:21:50.117Z,62.58
2022-08-26T22:24:19.904Z,62.99
2022-08-26T22:26:48.469Z,63.34
2022-08-26T22:29:16.953Z,63.36
2022-08-26T22:31:44.823Z,63.93
2022-08-26T22:34:17.141Z,63.66
2022-08-26T22:36:47.600Z,63.82
2022-08-26T22:39:17.980Z,64.61
2022-08-26T22:41:48.551Z,64.23
2022-08-26T22:44:17.680Z,63.88
2022-08-26T22:46:46.206Z,64.07
2022-08-26T22:49:18.235Z,64.09
2022-08-26T22:51:46.535Z,63.72
2022-08-26T22:54:14.723Z,63.79
2022-08-26T22:56:43.815Z,64.22
2022-08-26T22:59:12.121Z,63.49
2022-08-26T23:01:42.989Z,64.52
2022-08-26T23:04:11.168Z,64.66
2022-08-26T23:06:41.206Z,64.76
2022-08-26T23:09:09.984Z,65.81
2022-08-26T23:11:39.806Z,65.50
2022-08-26T23:14:10.233Z,64.98
2022-08-26T23:16:41.576Z,65.58
2022-08-26T23:19:11.662Z,65.76
2022-08-26T23:21:39.701Z,65.91
2022-08-26T23:24:07.767Z,66.63
2022-08-26T23:26:36.408Z,67.11
2022-08-26T23:29:06.187Z,66.67
2022-08-26T23:31:34.045Z,65.94
2022-08-26T23:34:20.290Z,65.77
2022-08-26T23:36:47.920Z,65.15
2022-08-26T23:39:15.474Z,65.00
2022-08-26T23:41:42.921Z,65.36
2022-08-26T23:44:11.595Z,65.24
2022-08-26T23:46:39.096Z,66.48
2022-08-26T23:49:06.750Z,67.14
2022-08-26T23:51:52.745Z,66.18
2022-08-26T23:54:20.121Z,66.20
2022-08-26T23:56:47.445Z,66.70
2022-08-26T23:59:15.606Z,66.82
